To NAV CANADA Home Page Login to a new session Search on AWWS site Feedback and Comments Disclaimer Vers la page française équivalente Tips FAQ What's new on the site To the Forecasts and Observations / NOTAM section To "File a Flight Plan" website Publications and other links Update of the User's profile FIC Telephone Numbers My Weather Data Folder Route Weather Data Regional Weather Data Local Weather Data To the Forecasts and Observations / NOTAM section
Request Generated 06/26/2017 at 22:25:34 UTC . Weather information available at that time is displayed.

METAR/TAF

BAKER LAKE/NU    

METAR CYBK 262200Z 14008KT 20SM FEW052 BKN073 16/04 A2992 RMK SC2AC5
SLP134 DENSITY ALT 200FT=
METAR CYBK 262100Z 15006KT 20SM SCT040 BKN070 16/05 A2991 RMK SC4AC2
SLP133 DENSITY ALT 200FT=
METAR CYBK 262000Z 15008KT 20SM SCT040 SCT062 15/04 A2991 RMK SC3SC1
SLP133 DENSITY ALT 200FT=

TAF AMD CYBK 262030Z 2620/2706 15008KT P6SM SCT040
RMK NXT FCST BY 270000Z=
Your time UTC time
Weather data provided by Environment Canada and NAV CANADA